Messwerte Iwojima

Temperatur

Temperatur
°C
1575518400 13.00 13.00 23
1575522000 14.00 14.00 22
1575525600 15.00 15.00 21
1575529200 16.00 16.00 21
1575532800 17.00 17.00 22
1575536400 18.00 18.00 22
1575540000 19.00 19.00
1575543600 20.00 20.00
1575547200 21.00 21.00 21
1575550800 22.00 22.00
1575554400 23.00 23.00
1575558000 0.00 0.00 20
1575561600 1.00 1.00
1575565200 2.00 2.00
1575568800 3.00 3.00 21
1575572400 4.00 4.00
1575576000 5.00 5.00 22
1575579600 6.00 6.00 21
1575583200 7.00 7.00 21
1575586800 8.00 8.00 22
1575590400 9.00 9.00
1575594000 10.00 10.00 23
1575597600 11.00 11.00 23
1575601200 12.00 12.00 23

Aktuellste Messwerte

Wettercharakter
Wetter: wechselnd bewölkt
Temperatur
23 °C
Feuchtigkeit
75 %
Wind
30 km/hWindrichtung: Nordost
Luftdruck
1017 hPa
Messzeit: 6. Dezember 2019, 12.00Datenquelle: METAR

Wind

Windrichtung Böen Mittelwind
° km/h km/h
1575518400 13.00 12.00 - 13.00 40° 30
1575522000 14.00 13.00 - 14.00 50° 25
1575525600 15.00 14.00 - 15.00 50° 30
1575529200 16.00 15.00 - 16.00 50° 30
1575532800 17.00 16.00 - 17.00 50° 30
1575536400 18.00 17.00 - 18.00 50° 30
1575540000 19.00 18.00 - 19.00
1575543600 20.00 19.00 - 20.00
1575547200 21.00 20.00 - 21.00 60° 30
1575550800 22.00 21.00 - 22.00
1575554400 23.00 22.00 - 23.00
1575558000 0.00 23.00 - 0.00 70° 30
1575561600 1.00 0.00 - 1.00
1575565200 2.00 1.00 - 2.00
1575568800 3.00 2.00 - 3.00 50° 25
1575572400 4.00 3.00 - 4.00
1575576000 5.00 4.00 - 5.00 50° 30
1575579600 6.00 5.00 - 6.00 60° 25
1575583200 7.00 6.00 - 7.00 50° 30
1575586800 8.00 7.00 - 8.00 60° 30
1575590400 9.00 8.00 - 9.00
1575594000 10.00 9.00 - 10.00 50° 30
1575597600 11.00 10.00 - 11.00 60° 30
1575601200 12.00 11.00 - 12.00 60° 30

Ihre Wetterstation

Fehlt Ihre Wetterstation auf unserem Portal?

Schreiben Sie an network@meteonews.ch